Costa Mesa, CA (92626)

6:26 AM PDT on September 01, 2015 (GMT -0700)
Upper Newport Bay - W6IT | | Change Station
CLOSE
Current Station
Personal Weather Station
Location: Newport Beach, CA
Elevation: 75 ft
Nearby Weather Stations

Elev 75 ft 33.65 °N, 117.90 °W | Updated 0 second ago

Mostly Cloudy
Mostly Cloudy
69.8 °F
Feels Like 69.8 °F
N
0.0
Wind Variable Wind from SE
Gusts 5.0 mph

Today
High -- | Low -- °F
--% Chance of Precip.
Yesterday
High -- | Low -- °F
Precip. -- in
6:25 AM 7:17 PM
Waning Gibbous, 89% visible
Pressure 29.90 in
Visibility 10.0 miles
Clouds Mostly Cloudy 2600 ft
Dew Point 63 °F
Humidity 80%
Rainfall 0.00 in
Snow Depth Not available.
UV 0 out of 12
Pollen 7.20 out of 12
Air Quality Not available.
Flu Activity Not available.
METAR KSNA 011253Z 17007KT 10SM BKN026 21/15 A2990 RMK AO2 SLP124 T02110150
Pressure 29.90 in
Visibility 10.0 miles
Clouds Mostly Cloudy 2600 ft
Dew Point 63 °F
Humidity 80%
Rainfall 0.00 in
Snow Depth Not available.
UV 0 out of 12
Pollen 7.20 out of 12
Air Quality Not available.
Flu Activity Not available.
METAR KSNA 011253Z 17007KT 10SM BKN026 21/15 A2990 RMK AO2 SLP124 T02110150

10-Day Weather Forecast

×

Almanac

Astronomy

Sep. 01, 2015 Rise Set
Actual Time
Civil Twilight
Nautical Twilight
Astronomical Twilight
Moon
Length of Visible Light
Length of Day
Tomorrow will be .
, % of the Moon is Illuminated

Today's Extremes

State Highs State Lows

Community

WunderPhotos

Upload Photos

1,851,513 photos uploaded!

WunderBlogs® & News

Nearby

Air Quality

  Air Quality AQ Index Pollutant
Not available.

Snow Depth

Station Depth Elevation

Earthquake Activity

City Distance Mag. Time & Date
Minimum magnitude displayed is 2.5.

Coastal Water Temperatures

Place Temperature

Stations

Nearby Weather Stations

Station Location Temp. Windchill Dew Point Humidity Wind Precip. Elev Updated Type